Terminal Aerodrome Forecast
Issued by NWS

Home | Current Version | Previous Version | Text Only | Print | Product List | Glossary On
Versions: 1 2 3 4 5 6 7 8 9 10 11 12 13 14 15 16 17 18
000
FTUS43 KIWX 010500 RRA
TAFSBN
TAF
KSBN 010539Z 0106/0206 18006KT P6SM SCT030
     FM011200 19010KT P6SM SCT010 BKN020
     FM011400 20012G20KT P6SM VCSH BKN035
     FM011800 21015G24KT P6SM SCT040 BKN080
      TEMPO 0123/0203 3SM TSRA BR OVC020CB=

USA.gov is the U.S. government's official web portal to all federal, state and local government web resources and services.